createdAt,value
2019-02-19T00:00:50.676Z,7.22
2019-02-19T00:10:56.795Z,6.11
2019-02-19T00:21:03.082Z,6.00
2019-02-19T00:31:08.983Z,7.19
2019-02-19T00:41:15.174Z,8.22
2019-02-19T00:51:22.346Z,7.62
2019-02-19T01:01:29.384Z,6.20
2019-02-19T01:11:35.191Z,7.23
2019-02-19T01:21:41.316Z,8.30
2019-02-19T01:31:49.569Z,8.05
2019-02-19T01:41:56.099Z,6.43
2019-02-19T01:52:01.995Z,7.89
2019-02-19T02:02:07.793Z,7.80
2019-02-19T02:12:13.660Z,8.01
2019-02-19T02:22:19.608Z,7.98
2019-02-19T02:32:26.018Z,7.94
2019-02-19T02:42:32.194Z,7.78
2019-02-19T02:52:38.138Z,7.46
2019-02-19T03:02:43.901Z,7.49
2019-02-19T03:12:49.752Z,7.38
2019-02-19T03:22:55.670Z,7.20
2019-02-19T03:33:01.886Z,7.18
2019-02-19T03:43:08.082Z,7.08
2019-02-19T03:53:13.879Z,6.93
2019-02-19T04:03:19.790Z,6.87
2019-02-19T04:13:25.650Z,6.75
2019-02-19T04:23:31.811Z,6.81
2019-02-19T04:33:37.719Z,6.74
2019-02-19T04:43:43.625Z,6.75
2019-02-19T04:53:49.951Z,6.65
2019-02-19T05:03:55.950Z,6.51
2019-02-19T05:14:01.854Z,6.28
2019-02-19T05:24:07.657Z,6.11
2019-02-19T05:34:14.881Z,5.97
2019-02-19T05:44:21.197Z,5.85
2019-02-19T05:54:27.322Z,5.73
2019-02-19T06:04:33.622Z,5.72
2019-02-19T06:14:39.744Z,5.59
2019-02-19T06:24:45.540Z,5.55
2019-02-19T06:34:51.348Z,7.33
2019-02-19T06:44:58.202Z,5.56
2019-02-19T06:55:04.589Z,5.61
2019-02-19T07:05:12.011Z,5.72
2019-02-19T07:15:17.729Z,5.78
2019-02-19T07:25:23.436Z,5.84
2019-02-19T07:35:29.438Z,5.97
2019-02-19T07:45:35.236Z,5.91
2019-02-19T07:55:40.948Z,5.91
2019-02-19T08:05:46.959Z,5.94
2019-02-19T08:15:53.895Z,6.22
2019-02-19T08:25:59.978Z,6.41
2019-02-19T08:36:06.054Z,6.84
2019-02-19T08:46:11.989Z,6.75
2019-02-19T08:56:17.805Z,6.99
2019-02-19T09:06:23.942Z,7.08
2019-02-19T09:16:30.232Z,7.08
2019-02-19T09:26:39.020Z,7.02
2019-02-19T09:36:45.640Z,7.13
2019-02-19T09:46:51.774Z,7.35
2019-02-19T09:56:57.637Z,7.35
2019-02-19T10:07:03.554Z,7.25
2019-02-19T10:17:09.270Z,7.20
2019-02-19T10:27:14.966Z,7.24
2019-02-19T10:37:21.024Z,7.40
2019-02-19T10:47:26.919Z,7.40
2019-02-19T10:57:32.771Z,7.35
2019-02-19T11:07:38.942Z,9.24
2019-02-19T11:17:44.612Z,9.24
2019-02-19T11:27:52.277Z,7.84
2019-02-19T11:37:58.530Z,8.15
2019-02-19T11:48:04.827Z,8.20
2019-02-19T11:58:10.761Z,8.20
2019-02-19T12:08:17.490Z,8.42
2019-02-19T12:18:23.194Z,8.39
2019-02-19T12:28:29.111Z,8.60
2019-02-19T12:38:34.898Z,8.71
2019-02-19T12:48:40.898Z,8.86
2019-02-19T12:58:46.887Z,8.94
2019-02-19T13:08:52.594Z,8.77
2019-02-19T13:19:03.489Z,9.08
2019-02-19T13:29:05.963Z,9.07
2019-02-19T13:39:11.758Z,8.99
2019-02-19T13:49:17.758Z,9.00
2019-02-19T13:59:23.981Z,9.00
2019-02-19T14:09:30.105Z,8.94
2019-02-19T14:19:43.685Z,9.01
2019-02-19T14:29:57.051Z,9.02
2019-02-19T14:40:21.070Z,9.13
2019-02-19T14:50:44.498Z,8.94
2019-02-19T15:01:00.643Z,9.49
2019-02-19T15:11:07.882Z,9.67
2019-02-19T15:21:33.896Z,9.66
2019-02-19T15:31:41.216Z,9.41
2019-02-19T15:41:48.752Z,9.33
2019-02-19T15:51:56.294Z,8.98
2019-02-19T16:02:06.919Z,8.79
2019-02-19T16:12:17.085Z,8.75
2019-02-19T16:22:33.831Z,8.77
2019-02-19T16:32:56.968Z,8.73
2019-02-19T16:43:04.283Z,8.70
2019-02-19T16:53:17.183Z,8.69
2019-02-19T17:03:24.733Z,8.69
2019-02-19T17:13:32.252Z,8.51
2019-02-19T17:23:55.819Z,8.51
2019-02-19T17:34:12.051Z,8.52
2019-02-19T17:44:19.395Z,8.58
2019-02-19T17:54:26.618Z,8.36
2019-02-19T18:04:34.018Z,8.12
2019-02-19T18:14:41.315Z,8.23
2019-02-19T18:24:46.989Z,7.98
2019-02-19T18:34:53.914Z,8.02
2019-02-19T18:44:59.808Z,7.86
2019-02-19T18:55:06.918Z,7.78
2019-02-19T19:05:13.266Z,7.83
2019-02-19T19:15:19.512Z,7.67
2019-02-19T19:25:25.413Z,7.55
2019-02-19T19:35:31.598Z,7.27
2019-02-19T19:45:37.407Z,7.28
2019-02-19T19:55:44.985Z,7.11
2019-02-19T20:05:50.795Z,6.97
2019-02-19T20:15:57.157Z,7.02
2019-02-19T20:26:03.232Z,6.94
2019-02-19T20:36:09.274Z,6.89
2019-02-19T20:46:15.536Z,6.82
2019-02-19T20:56:21.633Z,6.98
2019-02-19T21:06:27.611Z,6.92
2019-02-19T21:16:34.373Z,6.83
2019-02-19T21:26:40.798Z,6.79
2019-02-19T21:36:49.954Z,6.64
2019-02-19T21:46:57.475Z,6.45
2019-02-19T21:57:03.333Z,6.35
2019-02-19T22:07:10.409Z,6.12
2019-02-19T22:17:16.237Z,6.01
2019-02-19T22:27:22.112Z,5.91
2019-02-19T22:37:28.098Z,5.88
2019-02-19T22:47:35.572Z,5.95
2019-02-19T22:57:41.480Z,6.03
2019-02-19T23:07:54.440Z,5.92
2019-02-19T23:18:01.149Z,5.83
2019-02-19T23:28:07.330Z,5.64
2019-02-19T23:38:13.282Z,5.67
2019-02-19T23:48:20.954Z,5.80
2019-02-19T23:58:26.736Z,5.76
